KGSH/GSH METAR and TAF weather

Enter ICAO airport designator
Station Type Date Time Source
KGSH METAR 2020/07/03 12:53 UTC NOAA

KGSH 031253Z AUTO 03004KT 9SM CLR 25/18 A3006 RMK AO2 SLP171 T02500178


Station Type Date Time Source
KGSH Decoded METAR 2020/07/03 12:53 UTC NOAA

GOSHEN MUNICIPAL AIRPORT, IN, United States (KGSH) 41-32N 85-47W 252M
Jul 03, 2020 - 08:53 AM EDT / 2020.07.03 1253 UTC
Wind: from the NNE (030 degrees) at 5 MPH (4 KT):0
Visibility: 9 mile(s):0
Sky conditions: clear
Temperature: 77.0 F (25.0 C)
Dew Point: 64.0 F (17.8 C)
Relative Humidity: 64%
Pressure (altimeter): 30.06 in. Hg (1017 hPa)
ob: KGSH 031253Z AUTO 03004KT 9SM CLR 25/18 A3006 RMK AO2 SLP171 T02500178
cycle: 13

Station Type Date Time Source
KGSH TAF UTC NOAA

Error!

Example: see airport list